Time;durP1;ratioP1;P1;durP2;ratioP2;P2;SDS_P1;SDS_P2;PMS_P1;PMS_P2;Temp;Humidity;BMP_temperature;BMP_pressure;BME280_temperature;BME280_humidity;BME280_pressure;Samples;Min_cycle;Max_cycle;Signal;HPM_P1;HPM_P2
2022/08/28 00:01:52;;;;;;;56.88;53.58;;;;;;;24.52;38.77;101802.44;4976637;28;20060;-74
2022/08/28 00:04:17;;;;;;;58.03;54.88;;;;;;;24.51;38.82;101806.34;4976727;28;20121;-75
2022/08/28 00:06:42;;;;;;;55.70;52.90;;;;;;;24.49;38.85;101805.84;4976816;28;20031;-75
2022/08/28 00:09:08;;;;;;;56.65;53.17;;;;;;;24.47;38.74;101802.56;4977320;28;20123;-75
2022/08/28 00:11:37;;;;;;;55.97;52.58;;;;;;;24.46;39.29;101811.97;4976927;28;20034;-72
2022/08/28 00:14:03;;;;;;;56.08;53.08;;;;;;;24.44;39.25;101805.91;4977217;28;20031;-74
2022/08/28 00:16:30;;;;;;;54.20;51.33;;;;;;;24.41;38.85;101810.94;4976850;28;20034;-74
2022/08/28 00:18:56;;;;;;;55.03;52.00;;;;;;;24.39;39.23;101810.44;4976562;28;20035;-76
2022/08/28 00:21:21;;;;;;;55.63;52.60;;;;;;;24.38;39.01;101814.31;4975264;28;20034;-75
2022/08/28 00:23:47;;;;;;;56.33;53.05;;;;;;;24.36;39.07;101815.75;4977111;28;20041;-75
2022/08/28 00:27:51;;;;;;;54.10;51.10;;;;;;;24.34;39.14;101810.56;4976814;28;20451;-75
2022/08/28 00:28:58;;;;;;;55.70;52.15;;;;;;;24.33;39.17;101813.63;4976211;28;20125;-75
2022/08/28 00:31:24;;;;;;;55.20;51.95;;;;;;;24.30;39.00;101814.25;4976957;28;20126;-73
2022/08/28 00:33:49;;;;;;;53.92;51.22;;;;;;;24.28;39.44;101811.78;4976585;28;20438;-73
2022/08/28 00:36:15;;;;;;;50.80;47.95;;;;;;;24.27;39.06;101817.63;4975995;28;20050;-83
2022/08/28 00:38:40;;;;;;;53.78;50.80;;;;;;;24.24;39.26;101816.31;4976332;28;20038;-74
2022/08/28 00:41:05;;;;;;;52.28;49.45;;;;;;;24.21;39.62;101811.38;4977131;28;20050;-73
2022/08/28 00:43:35;;;;;;;54.72;51.72;;;;;;;24.20;39.39;101815.28;4976386;28;20031;-74
2022/08/28 00:46:03;;;;;;;54.97;52.05;;;;;;;24.17;39.47;101816.72;4975924;28;20038;-73
2022/08/28 00:48:29;;;;;;;53.88;50.92;;;;;;;24.16;39.28;101823.34;4975761;28;20027;-72
2022/08/28 00:53:40;;;;;;;56.97;53.75;;;;;;;24.11;39.14;101812.41;4977733;28;20057;-74
2022/08/28 00:56:09;;;;;;;55.15;52.30;;;;;;;24.09;39.55;101822.97;4992136;28;20117;-73
2022/08/28 00:58:35;;;;;;;54.80;51.70;;;;;;;24.06;39.81;101826.31;4976776;28;20053;-73
2022/08/28 01:01:01;;;;;;;55.55;52.40;;;;;;;24.05;39.83;101823.91;4976996;28;20031;-74
2022/08/28 01:03:26;;;;;;;54.03;50.95;;;;;;;24.04;39.66;101828.59;4977456;28;20030;-74
2022/08/28 01:05:52;;;;;;;55.65;52.55;;;;;;;24.02;39.58;101828.09;4977308;28;20384;-73
2022/08/28 01:08:17;;;;;;;55.63;52.22;;;;;;;23.99;39.79;101828.72;4977462;28;20038;-81
2022/08/28 01:10:48;;;;;;;54.15;51.25;;;;;;;23.98;39.36;101835.34;4977245;28;20478;-73
2022/08/28 01:13:15;;;;;;;53.67;50.58;;;;;;;23.95;39.84;101834.00;4977734;28;20081;-73
2022/08/28 01:15:41;;;;;;;52.55;49.38;;;;;;;23.94;39.89;101831.56;4991907;28;20030;-73
2022/08/28 01:18:12;;;;;;;53.75;51.05;;;;;;;23.92;39.36;101829.09;4977015;28;20050;-74
2022/08/28 01:20:45;;;;;;;55.22;52.03;;;;;;;23.91;39.38;101821.13;4977134;28;20120;-74
2022/08/28 01:23:48;;;;;;;53.08;49.97;;;;;;;23.88;39.74;101827.25;4977000;28;20480;-74
2022/08/28 01:26:13;;;;;;;48.63;46.00;;;;;;;23.84;39.51;101824.31;4976411;28;20078;-72
2022/08/28 01:28:39;;;;;;;53.67;50.47;;;;;;;23.82;39.89;101829.31;4976518;28;20113;-73
2022/08/28 01:31:09;;;;;;;50.70;47.95;;;;;;;23.81;39.39;101838.69;4976270;28;20114;-73
2022/08/28 01:33:34;;;;;;;56.33;53.40;;;;;;;23.78;39.55;101833.78;4976442;28;20541;-73
2022/08/28 01:36:00;;;;;;;50.88;48.15;;;;;;;23.76;39.89;101838.78;4976464;28;20031;-73
2022/08/28 01:38:26;;;;;;;51.38;48.53;;;;;;;23.73;39.57;101836.66;4975158;28;20118;-73
2022/08/28 01:40:53;;;;;;;50.63;47.78;;;;;;;23.72;39.39;101835.84;4976281;28;20093;-73
2022/08/28 01:43:21;;;;;;;49.88;47.38;;;;;;;23.71;39.43;101841.63;4975159;28;20039;-83
2022/08/28 01:45:53;;;;;;;52.53;49.55;;;;;;;23.68;39.64;101842.25;4976316;28;20510;-74
2022/08/28 01:48:20;;;;;;;52.53;49.53;;;;;;;23.67;40.00;101846.94;4976304;28;20067;-78
2022/08/28 01:50:47;;;;;;;51.47;48.37;;;;;;;23.65;39.80;101845.59;4976849;28;20403;-73
2022/08/28 01:53:14;;;;;;;50.10;47.35;;;;;;;23.63;39.90;101850.59;4976096;28;20370;-73
2022/08/28 01:55:40;;;;;;;51.47;48.57;;;;;;;23.60;39.60;101849.28;4975694;28;20039;-75
2022/08/28 01:58:07;;;;;;;50.92;47.97;;;;;;;23.59;39.63;101849.59;4975784;28;20034;-72
2022/08/28 02:00:32;;;;;;;51.20;48.33;;;;;;;23.57;40.04;101849.06;4975324;28;20031;-74
2022/08/28 02:02:59;;;;;;;52.97;49.78;;;;;;;23.54;39.96;101850.50;4975778;28;20533;-75
2022/08/28 02:05:28;;;;;;;51.05;48.20;;;;;;;23.51;39.67;101846.41;4975799;28;20459;-73
2022/08/28 02:07:55;;;;;;;51.65;48.67;;;;;;;23.49;39.56;101853.34;4976347;28;20473;-73
2022/08/28 02:10:23;;;;;;;50.60;47.90;;;;;;;23.46;40.05;101845.66;4976323;28;20055;-81
2022/08/28 02:12:50;;;;;;;49.37;46.73;;;;;;;23.44;39.73;101848.75;4976230;28;20375;-73
2022/08/28 02:15:15;;;;;;;51.45;48.95;;;;;;;23.42;39.63;101847.41;4975756;28;20100;-74
2022/08/28 02:17:40;;;;;;;50.28;46.67;;;;;;;23.40;40.01;101857.91;4990498;28;20078;-74
2022/08/28 02:20:06;;;;;;;53.83;51.03;;;;;;;23.38;39.86;101854.63;4975610;28;20034;-74
2022/08/28 02:22:32;;;;;;;52.65;49.38;;;;;;;23.36;40.03;101856.88;4975764;28;20045;-74
2022/08/28 02:24:57;;;;;;;51.85;48.50;;;;;;;23.34;39.86;101854.44;4990563;28;20045;-80
2022/08/28 02:27:23;;;;;;;50.50;47.63;;;;;;;23.32;40.26;101857.50;4975466;28;20035;-82
2022/08/28 02:29:48;;;;;;;51.42;48.22;;;;;;;23.28;39.84;101855.63;4975416;28;20039;-81
2022/08/28 02:32:14;;;;;;;50.38;47.47;;;;;;;23.27;40.04;101848.50;4975388;28;20055;-73
2022/08/28 02:34:41;;;;;;;51.33;48.33;;;;;;;23.24;40.14;101855.44;4975317;28;20455;-72
2022/08/28 02:37:10;;;;;;;50.83;47.72;;;;;;;23.23;39.97;101855.72;4975259;28;20035;-73
2022/08/28 02:39:35;;;;;;;50.20;47.60;;;;;;;23.20;39.93;101857.13;4975275;28;20038;-75
2022/08/28 02:42:04;;;;;;;51.83;48.40;;;;;;;23.18;39.92;101859.38;4975805;28;20023;-74
2022/08/28 02:44:29;;;;;;;53.70;50.78;;;;;;;23.16;40.30;101861.63;4975185;28;20035;-74
2022/08/28 02:46:54;;;;;;;50.25;47.65;;;;;;;23.13;40.34;101858.66;4974850;28;20045;-73
2022/08/28 02:49:21;;;;;;;51.10;47.95;;;;;;;23.12;40.39;101863.34;4975608;28;20054;-74
2022/08/28 02:51:47;;;;;;;48.03;45.22;;;;;;;23.09;40.01;101859.25;4975823;28;20058;-72
2022/08/28 02:54:12;;;;;;;49.05;46.42;;;;;;;23.07;40.36;101860.66;4975370;28;20039;-74
2022/08/28 02:56:37;;;;;;;52.45;49.72;;;;;;;23.05;40.49;101863.72;4974967;28;20046;-77
2022/08/28 02:59:03;;;;;;;48.28;45.67;;;;;;;23.02;40.18;101856.06;4975469;28;20039;-72
2022/08/28 03:01:28;;;;;;;48.97;46.28;;;;;;;23.01;40.03;101856.38;4975137;28;20041;-72
2022/08/28 03:03:54;;;;;;;49.08;46.50;;;;;;;22.99;40.10;101853.09;4974965;28;20038;-73
2022/08/28 03:06:19;;;;;;;50.97;48.05;;;;;;;22.97;40.09;101856.13;4974898;28;20048;-74
2022/08/28 03:08:45;;;;;;;48.85;46.33;;;;;;;22.95;39.96;101847.31;4974764;28;20058;-76
2022/08/28 03:11:10;;;;;;;50.58;47.88;;;;;;;22.92;39.99;101856.19;4989601;28;20386;-78
2022/08/28 03:13:36;;;;;;;51.08;48.22;;;;;;;22.91;40.36;101846.28;4974345;28;20453;-75
2022/08/28 03:16:03;;;;;;;50.78;47.97;;;;;;;22.88;40.14;101855.97;4989829;28;20383;-73
2022/08/28 03:18:29;;;;;;;49.08;46.35;;;;;;;22.86;40.34;101852.69;4974669;28;20027;-82
2022/08/28 03:20:55;;;;;;;49.20;46.13;;;;;;;22.84;40.52;101857.69;4974658;28;20035;-74
2022/08/28 03:23:27;;;;;;;51.53;48.75;;;;;;;22.82;40.14;101859.91;4974945;28;20069;-74
2022/08/28 03:26:08;;;;;;;47.63;44.65;;;;;;;22.79;40.39;101863.28;4975198;28;20049;-73
2022/08/28 03:28:38;;;;;;;48.58;46.05;;;;;;;22.77;40.68;101868.25;4975138;28;20027;-72
2022/08/28 03:31:08;;;;;;;48.95;45.83;;;;;;;22.75;40.50;101864.16;4974677;28;20037;-73
2022/08/28 03:33:34;;;;;;;49.20;46.63;;;;;;;22.73;40.32;101872.72;4974866;28;20035;-73
2022/08/28 03:36:00;;;;;;;48.78;46.05;;;;;;;22.72;40.30;101873.03;4974912;28;20118;-75
2022/08/28 03:38:26;;;;;;;47.55;44.83;;;;;;;22.68;40.56;101868.13;4974597;28;20042;-74
2022/08/28 03:40:52;;;;;;;48.50;44.92;;;;;;;22.67;40.51;101879.41;4974373;28;20030;-73
2022/08/28 03:43:22;;;;;;;47.90;45.05;;;;;;;22.65;40.48;101881.63;4974577;28;20038;-76
2022/08/28 03:45:59;;;;;;;50.60;47.90;;;;;;;22.63;40.31;101878.38;4974168;28;20475;-73
2022/08/28 03:48:27;;;;;;;49.22;46.22;;;;;;;22.60;40.70;101877.03;4974578;28;20154;-74
2022/08/28 03:50:53;;;;;;;49.25;46.45;;;;;;;22.58;40.64;101881.19;4985533;28;20112;-73
2022/08/28 03:53:24;;;;;;;47.88;45.45;;;;;;;22.56;40.80;101884.25;4989100;28;20089;-74
2022/08/28 03:55:50;;;;;;;48.60;46.08;;;;;;;22.54;40.74;101878.22;4989624;28;20042;-72
2022/08/28 03:58:19;;;;;;;48.63;45.97;;;;;;;22.52;40.41;101874.94;4973541;28;20034;-72
2022/08/28 04:00:44;;;;;;;;;;;;;;;22.50;40.69;101879.09;4974605;28;20031;-72
2022/08/28 04:03:13;;;;;;;46.13;43.42;;;;;;;22.46;40.63;101876.94;4974064;28;19921;-72
2022/08/28 04:05:40;;;;;;;49.05;46.22;;;;;;;22.43;40.83;101880.28;4974465;28;20470;-72
2022/08/28 04:08:06;;;;;;;46.13;43.72;;;;;;;22.42;40.97;101884.16;4974309;28;20062;-73
2022/08/28 04:10:32;;;;;;;47.40;44.75;;;;;;;22.41;40.57;101881.69;4974180;28;20118;-82
2022/08/28 04:12:59;;;;;;;47.17;44.65;;;;;;;22.39;41.02;101878.41;4974286;28;20105;-74
2022/08/28 04:15:25;;;;;;;47.70;45.15;;;;;;;22.36;40.57;101879.84;4974433;28;20031;-73
2022/08/28 04:17:50;;;;;;;47.60;44.78;;;;;;;22.34;41.03;101882.06;4974168;28;20065;-74
2022/08/28 04:20:16;;;;;;;46.53;44.13;;;;;;;22.33;40.73;101874.91;4974139;28;20414;-73
2022/08/28 04:22:42;;;;;;;47.03;44.42;;;;;;;22.31;40.40;101871.63;4974825;28;20394;-73
2022/08/28 04:25:07;;;;;;;48.95;46.45;;;;;;;22.29;41.09;101875.78;4977686;28;20026;-74
2022/08/28 04:27:33;;;;;;;48.92;46.25;;;;;;;22.27;40.62;101881.59;4977647;28;20389;-82
2022/08/28 04:29:59;;;;;;;47.65;45.15;;;;;;;22.25;41.10;101884.66;4977862;28;20035;-73
2022/08/28 04:32:25;;;;;;;45.92;43.42;;;;;;;22.23;41.12;101884.13;4992568;28;20038;-73
2022/08/28 04:34:50;;;;;;;51.22;48.05;;;;;;;22.21;41.14;101888.28;4977239;28;20035;-73
2022/08/28 04:37:16;;;;;;;47.80;45.13;;;;;;;22.19;40.99;101890.47;4977525;28;20078;-74
2022/08/28 04:39:42;;;;;;;47.80;45.20;;;;;;;22.18;41.17;101888.84;4977330;28;20066;-81
2022/08/28 04:42:07;;;;;;;44.97;42.67;;;;;;;22.15;40.88;101889.41;4977445;28;20121;-74
2022/08/28 04:44:33;;;;;;;45.72;43.38;;;;;;;22.12;40.82;101887.25;4977915;28;20031;-78
2022/08/28 04:46:58;;;;;;;46.25;43.40;;;;;;;22.11;41.14;101886.44;4992482;28;20034;-74
2022/08/28 04:49:24;;;;;;;46.83;44.22;;;;;;;22.09;40.70;101888.66;4977412;28;20035;-74
2022/08/28 04:51:50;;;;;;;48.53;45.97;;;;;;;22.07;41.21;101890.88;4976881;28;20510;-73
2022/08/28 04:54:16;;;;;;;46.13;43.67;;;;;;;22.05;40.83;101893.13;4976980;28;20383;-73
2022/08/28 04:56:42;;;;;;;47.83;44.92;;;;;;;22.03;40.98;101898.09;4977089;28;20467;-74
2022/08/28 04:59:08;;;;;;;47.97;45.42;;;;;;;22.01;41.03;101894.81;4977125;28;20030;-72
2022/08/28 05:01:34;;;;;;;45.67;43.17;;;;;;;21.99;41.34;101892.34;4992840;28;20109;-72
2022/08/28 05:04:01;;;;;;;45.55;42.42;;;;;;;21.97;41.19;101900.09;4976938;28;20115;-74
2022/08/28 05:06:28;;;;;;;47.30;44.45;;;;;;;21.95;41.41;101899.53;4977005;28;20035;-75
2022/08/28 05:08:55;;;;;;;46.33;43.83;;;;;;;21.94;40.93;101899.81;4976876;28;20035;-74
2022/08/28 05:11:23;;;;;;;46.33;43.38;;;;;;;21.93;41.23;101909.19;4976922;28;20129;-81
2022/08/28 05:13:49;;;;;;;46.80;44.20;;;;;;;21.90;40.94;101907.84;4976503;28;20037;-72
2022/08/28 05:16:16;;;;;;;45.30;42.78;;;;;;;21.88;41.11;101918.31;4976855;28;20526;-74
2022/08/28 05:18:42;;;;;;;46.38;43.55;;;;;;;21.87;41.57;101915.84;4976725;28;20038;-74
2022/08/28 05:21:13;;;;;;;46.20;43.28;;;;;;;21.84;41.32;101920.00;4976710;28;20122;-73
2022/08/28 05:23:39;;;;;;;45.58;42.88;;;;;;;21.81;41.02;101921.41;4977168;28;20031;-85
2022/08/28 05:26:05;;;;;;;45.30;42.80;;;;;;;21.80;41.51;101928.03;4992114;28;20041;-72
2022/08/28 05:28:30;;;;;;;45.85;43.15;;;;;;;21.78;41.52;101922.00;4976608;28;20562;-72
2022/08/28 05:31:06;;;;;;;45.13;42.47;;;;;;;21.76;41.04;101926.94;4977019;28;20118;-74
2022/08/28 05:33:32;;;;;;;44.17;41.70;;;;;;;21.74;41.16;101931.91;4976651;28;20093;-74
2022/08/28 05:35:57;;;;;;;45.85;43.08;;;;;;;21.73;41.25;101926.72;4975276;28;20034;-75
2022/08/28 05:38:22;;;;;;;44.45;42.05;;;;;;;21.72;41.53;101936.06;4976467;28;20035;-76
2022/08/28 05:40:48;;;;;;;43.88;41.65;;;;;;;21.70;41.07;101927.31;4991725;28;20046;-72
2022/08/28 05:43:15;;;;;;;44.40;41.60;;;;;;;21.67;41.24;101931.47;4976298;28;20035;-75
2022/08/28 05:45:41;;;;;;;44.97;42.30;;;;;;;21.65;41.24;101930.09;4976171;28;20066;-77
2022/08/28 05:48:08;;;;;;;45.42;42.40;;;;;;;21.64;41.51;101934.75;4976494;28;20062;-74
2022/08/28 05:50:37;;;;;;;45.10;42.70;;;;;;;21.63;41.50;101929.56;4976223;28;20035;-73
2022/08/28 05:53:02;;;;;;;43.33;40.80;;;;;;;21.59;41.27;101927.38;4975804;28;20047;-77
2022/08/28 05:55:27;;;;;;;43.38;40.75;;;;;;;21.58;41.59;101939.50;4976250;28;20046;-80
2022/08/28 05:57:53;;;;;;;45.53;43.17;;;;;;;21.56;41.71;101938.94;4975929;28;20039;-75
2022/08/28 06:00:18;;;;;;;44.85;42.20;;;;;;;21.53;41.64;101931.28;4975226;28;20030;-72
2022/08/28 06:02:44;;;;;;;44.47;42.08;;;;;;;21.52;41.59;101937.91;4976488;28;20387;-75
2022/08/28 06:05:10;;;;;;;43.55;41.25;;;;;;;21.52;41.50;101945.31;4990926;28;20037;-73
2022/08/28 06:07:35;;;;;;;43.67;41.05;;;;;;;21.50;41.94;101940.13;4975929;28;20031;-72
2022/08/28 06:10:01;;;;;;;43.40;40.88;;;;;;;21.47;41.64;101948.09;4976016;28;20031;-74
2022/08/28 06:12:26;;;;;;;42.08;39.97;;;;;;;21.46;41.88;101939.03;4976043;28;20463;-74
2022/08/28 06:14:52;;;;;;;44.75;42.50;;;;;;;21.46;41.80;101946.47;4991141;28;20034;-72
2022/08/28 06:17:17;;;;;;;43.55;41.28;;;;;;;21.44;41.87;101948.69;4975719;28;20493;-75
2022/08/28 06:19:43;;;;;;;44.42;41.97;;;;;;;21.43;41.75;101952.53;4975557;28;20434;-80
2022/08/28 06:22:11;;;;;;;43.35;40.55;;;;;;;21.42;41.64;101950.88;4975957;28;20426;-77
2022/08/28 06:24:36;;;;;;;43.38;40.67;;;;;;;21.40;42.17;101948.44;4975698;28;20042;-74
2022/08/28 06:27:02;;;;;;;43.85;41.47;;;;;;;21.40;41.78;101948.44;4975329;28;20093;-75
2022/08/28 06:29:28;;;;;;;45.17;42.08;;;;;;;21.39;41.84;101953.13;4974384;28;20038;-73
2022/08/28 06:31:59;;;;;;;45.13;42.33;;;;;;;21.38;42.03;101954.22;4975387;28;20038;-73
2022/08/28 06:34:25;;;;;;;42.38;40.33;;;;;;;21.38;41.89;101950.63;4975731;28;20146;-74
2022/08/28 06:36:51;;;;;;;45.25;42.38;;;;;;;21.37;42.46;101957.25;4975824;28;20063;-73
2022/08/28 06:39:16;;;;;;;43.22;40.85;;;;;;;21.36;42.62;101950.06;4975272;28;20411;-73
2022/08/28 06:41:42;;;;;;;42.10;39.83;;;;;;;21.35;42.19;101965.75;4975838;28;20069;-74
2022/08/28 06:44:09;;;;;;;41.90;39.58;;;;;;;21.35;42.19;101956.69;4975278;28;20031;-74
2022/08/28 06:46:35;;;;;;;42.95;40.30;;;;;;;21.34;42.46;101958.63;4974939;28;20031;-73
2022/08/28 06:49:02;;;;;;;45.22;42.92;;;;;;;21.35;42.77;101959.44;4975615;28;20165;-74
2022/08/28 06:51:27;;;;;;;44.42;41.53;;;;;;;21.34;42.36;101966.88;4975106;28;20586;-73
2022/08/28 06:53:53;;;;;;;43.55;40.80;;;;;;;21.35;42.56;101965.75;4974679;28;20133;-73
2022/08/28 06:56:20;;;;;;;44.85;42.00;;;;;;;21.35;42.15;101968.50;4975005;28;20055;-77
2022/08/28 06:58:47;;;;;;;43.25;41.00;;;;;;;21.36;42.15;101969.31;4975022;28;20039;-80
2022/08/28 07:01:16;;;;;;;43.60;40.50;;;;;;;21.37;42.43;101971.78;4973909;28;20075;-73
2022/08/28 07:03:42;;;;;;;41.72;39.53;;;;;;;21.38;42.46;101973.44;4974990;28;20034;-73
2022/08/28 07:06:09;;;;;;;42.78;40.10;;;;;;;21.40;42.27;101978.69;4974575;28;20030;-73
2022/08/28 07:08:36;;;;;;;42.72;40.30;;;;;;;21.41;42.33;101976.75;4975935;28;20441;-73
2022/08/28 07:11:14;;;;;;;42.28;40.05;;;;;;;21.42;42.86;101976.47;4974775;28;20065;-73
2022/08/28 07:13:41;;;;;;;41.90;39.72;;;;;;;21.42;42.31;101970.97;4975463;28;20033;-73
2022/08/28 07:16:07;;;;;;;43.78;40.70;;;;;;;21.43;42.66;101971.78;4974582;28;20047;-74
2022/08/28 07:18:33;;;;;;;43.85;41.38;;;;;;;21.44;42.44;101976.16;4974750;28;20033;-74
2022/08/28 07:20:59;;;;;;;44.95;42.15;;;;;;;21.46;43.07;101968.47;4974551;28;20129;-73
2022/08/28 07:23:26;;;;;;;44.40;41.25;;;;;;;21.46;43.09;101966.53;4974631;28;20117;-72
2022/08/28 07:25:52;;;;;;;41.92;39.50;;;;;;;21.48;43.15;101964.31;4974557;28;20034;-72
2022/08/28 07:28:17;;;;;;;42.53;40.10;;;;;;;21.50;43.27;101967.59;4974911;28;20094;-74
2022/08/28 07:30:43;;;;;;;43.42;41.33;;;;;;;21.53;43.28;101977.22;4990135;28;20118;-72
2022/08/28 07:33:08;;;;;;;42.88;40.67;;;;;;;21.55;42.80;101972.25;4974577;28;20486;-73
2022/08/28 07:35:33;;;;;;;43.30;40.90;;;;;;;21.57;43.41;101983.75;4974832;28;20039;-73
2022/08/28 07:37:59;;;;;;;41.42;38.92;;;;;;;21.59;43.16;101981.53;4974451;28;20045;-74
2022/08/28 07:40:24;;;;;;;39.83;37.83;;;;;;;21.63;42.66;101988.13;4974469;28;20070;-73
2022/08/28 07:45:34;;;;;;;39.60;37.70;;;;;;;21.69;42.87;101992.47;4975360;28;20139;-73
2022/08/28 07:48:03;;;;;;;40.60;38.30;;;;;;;21.72;42.49;101991.91;4974361;28;20126;-71
2022/08/28 07:50:28;;;;;;;41.38;38.75;;;;;;;21.76;42.39;101992.16;4974881;28;20045;-73
2022/08/28 07:52:54;;;;;;;42.10;40.13;;;;;;;21.80;42.44;101988.53;4974579;28;20136;-73
2022/08/28 07:55:19;;;;;;;41.03;39.13;;;;;;;21.83;42.69;102001.69;4974667;28;20117;-75
2022/08/28 07:57:46;;;;;;;42.08;39.65;;;;;;;21.86;42.69;102005.00;4974719;28;20030;-74
2022/08/28 08:00:12;;;;;;;44.33;42.03;;;;;;;21.89;42.45;102001.66;4992727;28;20038;-73
2022/08/28 08:02:38;;;;;;;41.80;39.63;;;;;;;21.92;42.66;102003.81;4978215;28;20035;-74
2022/08/28 08:05:04;;;;;;;44.88;42.55;;;;;;;21.94;42.81;102010.69;4978574;28;20110;-72
2022/08/28 08:07:29;;;;;;;42.10;39.70;;;;;;;21.98;42.98;102003.50;4978313;28;20058;-74
2022/08/28 08:09:55;;;;;;;42.15;39.75;;;;;;;22.02;43.10;102012.81;4992852;28;20447;-73
2022/08/28 08:12:20;;;;;;;43.85;41.50;;;;;;;22.06;42.59;102007.56;4993341;28;20460;-74
2022/08/28 08:14:47;;;;;;;41.97;39.78;;;;;;;22.10;42.47;102011.38;4978699;28;20037;-74
2022/08/28 08:17:13;;;;;;;43.90;40.88;;;;;;;22.15;42.49;102016.00;4978519;28;20050;-73
2022/08/28 08:19:38;;;;;;;42.22;40.22;;;;;;;22.19;42.61;102022.56;4993352;28;20486;-73
2022/08/28 08:22:04;;;;;;;47.65;44.25;;;;;;;22.24;42.36;102014.28;4977206;28;20042;-73
2022/08/28 08:24:29;;;;;;;41.50;39.60;;;;;;;22.29;42.41;102018.94;4978104;28;20035;-74
2022/08/28 08:26:59;;;;;;;43.28;41.05;;;;;;;22.32;42.67;102016.41;4978189;28;20043;-74
2022/08/28 08:29:25;;;;;;;42.13;39.80;;;;;;;22.36;42.22;102025.72;4977564;28;20399;-72
2022/08/28 08:32:03;;;;;;;43.22;41.00;;;;;;;22.42;42.18;102021.78;4993167;28;20382;-73
2022/08/28 08:34:30;;;;;;;42.47;40.25;;;;;;;22.47;42.69;102018.16;4978256;28;20034;-73
2022/08/28 08:36:56;;;;;;;43.50;40.95;;;;;;;22.54;42.42;102017.84;4978316;28;20042;-73
2022/08/28 08:39:21;;;;;;;43.65;41.45;;;;;;;22.59;42.25;102012.28;4977509;28;20390;-74
2022/08/28 08:41:50;;;;;;;42.80;40.58;;;;;;;22.63;41.96;102011.41;4977469;28;20459;-74
2022/08/28 08:44:35;;;;;;;44.38;41.75;;;;;;;22.67;42.08;102015.19;4977335;28;20031;-73
2022/08/28 08:47:23;;;;;;;45.50;42.80;;;;;;;22.73;42.40;102021.47;4977594;28;20035;-72
2022/08/28 08:49:57;;;;;;;43.65;41.45;;;;;;;22.80;41.96;102012.84;4977605;28;20045;-72
2022/08/28 08:52:35;;;;;;;44.40;41.90;;;;;;;22.86;42.16;102012.47;4977681;28;20030;-72
2022/08/28 08:55:27;;;;;;;46.08;43.78;;;;;;;22.93;41.63;102012.13;4976976;28;20042;-72
2022/08/28 08:58:24;;;;;;;44.35;41.60;;;;;;;23.00;41.46;102012.59;4977133;28;20035;-72
2022/08/28 09:00:56;;;;;;;42.97;40.97;;;;;;;23.06;41.78;102016.13;4976831;28;20470;-74
2022/08/28 09:03:26;;;;;;;45.28;42.97;;;;;;;23.10;41.04;102009.69;4977055;28;20085;-78
2022/08/28 09:05:59;;;;;;;43.95;41.47;;;;;;;23.15;41.51;102006.06;4977030;28;20117;-73
2022/08/28 09:08:38;;;;;;;45.85;43.55;;;;;;;23.20;41.33;102008.75;4976970;28;20054;-73
2022/08/28 09:11:30;;;;;;;45.80;43.25;;;;;;;23.25;41.01;102003.16;4977519;28;20054;-75
2022/08/28 09:14:15;;;;;;;45.78;43.03;;;;;;;23.33;40.81;102007.19;4977195;28;20407;-76
2022/08/28 09:16:43;;;;;;;46.70;44.15;;;;;;;23.36;41.00;102019.53;4976606;28;20163;-75
2022/08/28 09:19:14;;;;;;;46.83;44.45;;;;;;;23.39;40.48;102017.03;4976416;28;20034;-71
2022/08/28 09:21:43;;;;;;;50.13;47.13;;;;;;;23.44;40.89;102016.13;4976749;28;20035;-73
2022/08/28 09:24:34;;;;;;;45.03;42.45;;;;;;;23.49;41.55;102019.63;4976638;28;20085;-72
2022/08/28 09:27:00;;;;;;;46.92;44.33;;;;;;;23.52;41.15;102015.44;4976674;28;20121;-81
2022/08/28 09:29:30;;;;;;;49.65;47.00;;;;;;;23.57;40.39;102012.63;4976747;28;20089;-72
2022/08/28 09:31:56;;;;;;;47.85;45.10;;;;;;;23.59;41.29;102009.56;4976938;28;20109;-71
2022/08/28 09:34:31;;;;;;;46.88;44.55;;;;;;;23.64;40.52;102021.34;4976697;28;20157;-73
2022/08/28 09:36:58;;;;;;;49.92;47.50;;;;;;;23.68;40.71;102005.81;4976233;28;20396;-72
2022/08/28 09:39:34;;;;;;;47.83;45.53;;;;;;;23.73;41.07;102013.22;4976768;28;20049;-73
2022/08/28 09:45:19;;;;;;;49.10;46.65;;;;;;;23.81;41.63;102012.50;4976213;28;20045;-73
2022/08/28 09:47:49;;;;;;;49.38;46.67;;;;;;;23.88;40.67;102009.38;4976285;28;20038;-73
2022/08/28 09:50:27;;;;;;;49.70;46.47;;;;;;;23.92;41.76;102005.72;4976427;28;20447;-73
2022/08/28 09:52:56;;;;;;;49.58;47.08;;;;;;;23.97;40.80;102007.56;4976353;28;20042;-73
2022/08/28 09:55:24;;;;;;;50.25;47.58;;;;;;;24.01;40.97;102010.53;4975806;28;20054;-72
2022/08/28 09:57:51;;;;;;;51.97;49.28;;;;;;;24.05;40.57;102009.63;4976064;28;20419;-73
2022/08/28 10:00:16;;;;;;;52.58;49.75;;;;;;;24.10;40.55;102017.81;4976398;28;20058;-73
2022/08/28 10:02:49;;;;;;;51.75;48.78;;;;;;;24.15;40.52;102026.00;4975996;28;20030;-72
2022/08/28 10:05:22;;;;;;;51.78;49.28;;;;;;;24.21;41.11;102014.88;4976188;28;20371;-72
2022/08/28 10:08:01;;;;;;;55.22;52.25;;;;;;;24.26;41.03;102017.53;4976183;28;20065;-73
2022/08/28 10:10:35;;;;;;;52.40;49.60;;;;;;;24.30;41.45;102010.28;4975547;28;20443;-75
2022/08/28 10:13:19;;;;;;;52.33;49.72;;;;;;;24.36;41.36;102017.34;4975868;28;20030;-73
2022/08/28 10:15:56;;;;;;;54.83;51.97;;;;;;;24.41;40.60;102017.25;4976340;28;20089;-73
2022/08/28 10:18:43;;;;;;;53.15;50.53;;;;;;;24.48;40.88;102016.88;4975178;28;20035;-74
2022/08/28 10:21:24;;;;;;;54.50;51.75;;;;;;;24.52;41.77;102020.66;4974489;28;20440;-73
2022/08/28 10:24:09;;;;;;;51.75;49.10;;;;;;;24.57;40.42;102012.28;4975597;28;20058;-71
2022/08/28 10:26:57;;;;;;;51.20;48.60;;;;;;;24.60;40.60;102011.66;4975641;28;20034;-72
2022/08/28 10:29:50;;;;;;;54.08;50.97;;;;;;;24.58;39.55;102020.25;4975966;28;20041;-71
2022/08/28 10:32:40;;;;;;;52.95;49.88;;;;;;;24.53;40.06;102008.50;4990917;28;20042;-71
2022/08/28 10:35:18;;;;;;;52.72;50.17;;;;;;;24.49;39.10;102007.47;4975738;28;20058;-73
2022/08/28 10:37:51;;;;;;;52.35;49.80;;;;;;;24.44;39.09;102011.09;4974139;28;20065;-73
2022/08/28 10:40:38;;;;;;;55.33;52.50;;;;;;;24.41;38.94;102000.69;4975510;28;20035;-75
2022/08/28 10:43:10;;;;;;;52.20;49.45;;;;;;;24.41;39.08;102008.97;4975428;28;20038;-75
2022/08/28 10:45:36;;;;;;;52.42;49.70;;;;;;;24.41;39.14;102003.44;4975357;28;20035;-77
2022/08/28 10:48:26;;;;;;;51.45;48.85;;;;;;;24.40;38.74;102013.66;4975207;28;20030;-72
2022/08/28 10:51:06;;;;;;;52.13;49.65;;;;;;;24.41;38.66;102015.28;4975553;28;20086;-72
2022/08/28 10:53:37;;;;;;;53.13;50.38;;;;;;;24.40;38.24;102013.66;4974812;28;20129;-72
2022/08/28 10:56:07;;;;;;;51.28;48.50;;;;;;;24.38;38.43;102015.91;4974886;28;20070;-74
2022/08/28 10:58:37;;;;;;;54.25;51.55;;;;;;;24.36;38.66;102014.59;4975523;28;20062;-75
2022/08/28 11:01:07;;;;;;;55.15;52.50;;;;;;;24.36;38.35;102012.63;4974829;28;20410;-77
2022/08/28 11:03:40;;;;;;;52.53;49.50;;;;;;;24.38;38.49;102015.91;4975004;28;20030;-76
2022/08/28 11:06:37;;;;;;;51.45;48.67;;;;;;;24.41;38.33;102014.47;4990143;28;20038;-77
2022/08/28 11:09:24;;;;;;;50.25;47.88;;;;;;;24.43;38.55;102015.00;4974587;28;20109;-70
2022/08/28 11:12:26;;;;;;;49.47;47.08;;;;;;;24.49;38.70;102002.75;4975082;28;20097;-70
2022/08/28 11:14:52;;;;;;;52.75;49.90;;;;;;;24.54;38.36;102010.94;4975238;28;20432;-71
2022/08/28 11:17:21;;;;;;;57.50;54.42;;;;;;;24.61;38.49;102011.34;4973537;28;20122;-70
2022/08/28 11:20:14;;;;;;;51.45;48.95;;;;;;;24.68;38.38;102016.47;4974710;28;20045;-70
2022/08/28 11:22:50;;;;;;;52.30;49.67;;;;;;;24.75;38.35;102011.34;4974767;28;20046;-73
2022/08/28 11:25:21;;;;;;;55.50;52.50;;;;;;;24.82;38.44;102010.91;4974940;28;20026;-70
2022/08/28 11:28:22;;;;;;;55.03;52.42;;;;;;;24.89;38.42;102019.63;4974756;28;20034;-72